This is the latest recevied weather packets stored in our database for station/object KY4EF. If no packets are shown the sender has not sent any weather packets the latest 1 day(s).
| Time | Temp. | Humidity | Pressure | Rain* | Wind** | Luminosity | Snow |
|---|---|---|---|---|---|---|---|
| 1836274855 | 16.67° C | 99% | 1019.9 hPa | 0 mm | 0 m/s | 0 W/m² | - |
| 1836274553 | 16.67° C | 99% | 1019.6 hPa | 0 mm | 0 m/s | 0 W/m² | - |
| 1836274407 | 16.67° C | 99% | 1019.7 hPa | 0 mm | 0 m/s | 0 W/m² | - |
| 1836274252 | 16.67° C | 99% | 1019.9 hPa | 0 mm | 0 m/s | 0 W/m² | - |
| 1836273951 | 16.67° C | 99% | 1019.8 hPa | 0 mm | 0 m/s | 0 W/m² | - |
| 1778047485 | 18.33° C | 61% | 1012 hPa | 0 mm | 0 m/s | 0 W/m² | - |
| 1778047182 | 18.33° C | 61% | 1011.8 hPa | 0 mm | 0.45 m/s, 66° | 0 W/m² | - |
| 1778046879 | 18.33° C | 59% | 1012.3 hPa | 0 mm | 0 m/s | 0 W/m² | - |
| 1778046575 | 18.33° C | 60% | 1012.6 hPa | 0 mm | 0.89 m/s, 133° | 0 W/m² | - |
| 1778046272 | 18.33° C | 57% | 1012.7 hPa | 0 mm | 0 m/s | 0 W/m² | - |
| 1778045968 | 18.33° C | 58% | 1012.6 hPa | 0 mm | 0 m/s | 0 W/m² | - |
| 1778045667 | 18.33° C | 60% | 1012.8 hPa | 0 mm | 0 m/s | 0 W/m² | - |
| 1778045365 | 18.33° C | 59% | 1012.5 hPa | 0 mm | 0.45 m/s, 164° | 0 W/m² | - |
| 1778045063 | 18.33° C | 58% | 1012.7 hPa | 0 mm | 0 m/s | 0 W/m² | - |
| 1778044761 | 18.33° C | 59% | 1012.6 hPa | 0 mm | 0 m/s | 0 W/m² | - |
| 1778044457 | 18.33° C | 59% | 1012.5 hPa | 0 mm | 0.45 m/s, 151° | 0 W/m² | - |
| 1778044154 | 18.33° C | 61% | 1012.4 hPa | 0 mm | 0 m/s | 0 W/m² | - |
| 1778043852 | 18.33° C | 59% | 1012.3 hPa | 0 mm | 0.45 m/s, 157° | 0 W/m² | - |
| 1778043551 | 18.33° C | 58% | 1012 hPa | 0 mm | 0.45 m/s, 27° | 0 W/m² | - |
| 1778043245 | 18.33° C | 62% | 1012.2 hPa | 0 mm | 0 m/s | 0 W/m² | - |
| 1778042942 | 18.33° C | 59% | 1012.2 hPa | 0 mm | 0 m/s | 0 W/m² | - |
| 1778042640 | 18.33° C | 62% | 1012 hPa | 0 mm | 0.45 m/s, 138° | 0 W/m² | - |
| 1778042337 | 18.33° C | 59% | 1012 hPa | 0 mm | 0 m/s | 0 W/m² | - |
| 1778042034 | 18.33° C | 58% | 1012.3 hPa | 0 mm | 0.45 m/s, 268° | 0 W/m² | - |
| 1778041732 | 18.33° C | 59% | 1012.2 hPa | 0 mm | 0.45 m/s, 283° | 0 W/m² | - |
* Rain latest hour (hover to see other rain measurements)
** Current wind speed in m/s (hover to see current wind gust speed)